createdAt,value
2018-05-13T00:00:31.220Z,18.26
2018-05-13T00:01:31.221Z,18.18
2018-05-13T00:02:31.225Z,18.25
2018-05-13T00:03:31.229Z,18.25
2018-05-13T00:04:31.237Z,18.21
2018-05-13T00:05:31.232Z,18.20
2018-05-13T00:06:31.244Z,18.20
2018-05-13T00:07:31.270Z,18.25
2018-05-13T00:08:31.244Z,18.23
2018-05-13T00:09:31.255Z,18.11
2018-05-13T00:10:31.279Z,18.18
2018-05-13T00:11:31.266Z,18.05
2018-05-13T00:12:31.271Z,18.02
2018-05-13T00:13:31.266Z,18.10
2018-05-13T00:14:31.285Z,18.05
2018-05-13T00:15:31.273Z,18.05
2018-05-13T00:16:31.266Z,18.08
2018-05-13T00:17:31.272Z,17.99
2018-05-13T00:18:31.276Z,18.02
2018-05-13T00:19:31.298Z,17.99
2018-05-13T00:20:31.282Z,18.07
2018-05-13T00:21:31.298Z,18.00
2018-05-13T00:22:31.324Z,18.05
2018-05-13T00:23:31.288Z,18.02
2018-05-13T00:24:31.291Z,17.95
2018-05-13T00:25:31.303Z,17.99
2018-05-13T00:26:31.313Z,17.90
2018-05-13T00:27:31.314Z,17.97
2018-05-13T00:28:31.323Z,17.95
2018-05-13T00:29:31.321Z,17.99
2018-05-13T00:30:31.318Z,18.00
2018-05-13T00:31:31.333Z,18.00
2018-05-13T00:32:31.333Z,18.00
2018-05-13T00:33:31.321Z,17.97
2018-05-13T00:34:31.338Z,17.99
2018-05-13T00:35:31.343Z,18.03
2018-05-13T00:36:31.361Z,18.05
2018-05-13T00:37:31.343Z,17.99
2018-05-13T00:38:31.347Z,17.97
2018-05-13T00:39:31.368Z,18.00
2018-05-13T00:40:31.362Z,18.07
2018-05-13T00:41:31.379Z,18.07
2018-05-13T00:42:31.356Z,18.00
2018-05-13T00:43:31.375Z,18.00
2018-05-13T00:44:31.387Z,18.05
2018-05-13T00:45:31.366Z,17.99
2018-05-13T00:46:31.366Z,18.02
2018-05-13T00:47:31.388Z,18.00
2018-05-13T00:48:31.387Z,18.02
2018-05-13T00:49:31.373Z,18.00
2018-05-13T00:50:31.446Z,18.00
2018-05-13T00:51:31.394Z,17.99
2018-05-13T00:52:31.420Z,18.00
2018-05-13T00:53:31.392Z,18.02
2018-05-13T00:54:31.399Z,17.97
2018-05-13T00:55:31.397Z,18.03
2018-05-13T00:56:31.406Z,17.95
2018-05-13T00:57:31.409Z,17.93
2018-05-13T00:58:31.412Z,17.96
2018-05-13T00:59:31.412Z,17.97
2018-05-13T01:00:31.416Z,17.97
2018-05-13T01:01:31.434Z,17.96
2018-05-13T01:02:31.426Z,17.99
2018-05-13T01:03:31.447Z,17.89
2018-05-13T01:04:31.455Z,17.95
2018-05-13T01:05:31.432Z,17.86
2018-05-13T01:06:31.470Z,17.92
2018-05-13T01:07:31.446Z,17.93
2018-05-13T01:08:31.451Z,17.99
2018-05-13T01:09:31.492Z,17.97
2018-05-13T01:10:31.471Z,18.00
2018-05-13T01:11:31.463Z,17.96
2018-05-13T01:12:31.472Z,17.89
2018-05-13T01:13:31.470Z,17.92
2018-05-13T01:14:31.499Z,17.92
2018-05-13T01:15:31.470Z,17.90
2018-05-13T01:16:31.521Z,17.90
2018-05-13T01:17:31.467Z,17.92
2018-05-13T01:18:31.477Z,17.93
2018-05-13T01:19:31.478Z,17.86
2018-05-13T01:20:31.475Z,17.89
2018-05-13T01:21:31.491Z,17.84
2018-05-13T01:22:31.489Z,17.89
2018-05-13T01:23:31.523Z,17.92
2018-05-13T01:24:31.501Z,17.79
2018-05-13T01:25:31.548Z,17.79
2018-05-13T01:26:32.350Z,17.84
2018-05-13T01:27:31.519Z,17.84
2018-05-13T01:28:31.509Z,17.81
2018-05-13T01:29:31.511Z,17.89
2018-05-13T01:30:31.533Z,17.87
2018-05-13T01:31:31.546Z,17.75
2018-05-13T01:32:31.515Z,17.79
2018-05-13T01:33:31.518Z,17.81
2018-05-13T01:34:31.538Z,17.81
2018-05-13T01:35:31.551Z,17.84
2018-05-13T01:36:31.533Z,17.79
2018-05-13T01:37:31.553Z,17.79
2018-05-13T01:38:31.539Z,17.82
2018-05-13T01:39:31.547Z,17.78
2018-05-13T01:40:31.567Z,17.78
2018-05-13T01:41:31.558Z,17.78
2018-05-13T01:42:31.569Z,17.72
2018-05-13T01:43:31.577Z,17.72
2018-05-13T01:44:31.617Z,17.66
2018-05-13T01:45:31.577Z,17.70
2018-05-13T01:46:31.564Z,17.71
2018-05-13T01:47:31.563Z,17.66
2018-05-13T01:48:31.569Z,17.66
2018-05-13T01:49:31.578Z,17.66
2018-05-13T01:50:31.578Z,17.66
2018-05-13T01:51:31.581Z,17.68
2018-05-13T01:52:31.577Z,17.64
2018-05-13T01:53:31.587Z,17.62
2018-05-13T01:54:31.604Z,17.63
2018-05-13T01:55:31.603Z,17.56
2018-05-13T01:56:31.607Z,17.55
2018-05-13T01:57:31.609Z,17.63
2018-05-13T01:58:31.604Z,17.56
2018-05-13T01:59:31.617Z,17.64
2018-05-13T02:00:31.710Z,17.56
2018-05-13T02:01:31.617Z,17.62
2018-05-13T02:02:31.667Z,17.74
2018-05-13T02:03:31.629Z,17.74
2018-05-13T02:04:31.628Z,17.62
2018-05-13T02:05:31.632Z,17.66
2018-05-13T02:06:31.651Z,17.59
2018-05-13T02:07:31.626Z,17.68
2018-05-13T02:08:31.638Z,17.66
2018-05-13T02:09:31.647Z,17.56
2018-05-13T02:10:31.641Z,17.56
2018-05-13T02:11:31.650Z,17.62
2018-05-13T02:12:31.681Z,17.63
2018-05-13T02:13:31.654Z,17.63
2018-05-13T02:14:31.650Z,17.58
2018-05-13T02:15:31.659Z,17.55
2018-05-13T02:16:31.667Z,17.52
2018-05-13T02:17:31.664Z,17.66
2018-05-13T02:18:31.673Z,17.55
2018-05-13T02:19:31.663Z,17.70
2018-05-13T02:20:31.696Z,17.59
2018-05-13T02:21:31.689Z,17.68
2018-05-13T02:22:31.688Z,17.62
2018-05-13T02:23:31.682Z,17.58
2018-05-13T02:24:31.719Z,17.64
2018-05-13T02:25:31.698Z,17.56
2018-05-13T02:26:31.736Z,17.54
2018-05-13T02:27:31.701Z,17.59
2018-05-13T02:28:31.697Z,17.68
2018-05-13T02:29:31.698Z,17.62
2018-05-13T02:30:31.710Z,17.59
2018-05-13T02:31:31.720Z,17.56
2018-05-13T02:32:31.723Z,17.54
2018-05-13T02:33:31.704Z,17.52
2018-05-13T02:34:31.713Z,17.52
2018-05-13T02:35:31.716Z,17.48
2018-05-13T02:36:31.716Z,17.54
2018-05-13T02:37:31.743Z,17.54
2018-05-13T02:38:31.740Z,17.52
2018-05-13T02:39:31.754Z,17.51
2018-05-13T02:40:31.739Z,17.59
2018-05-13T02:41:31.758Z,17.54
2018-05-13T02:42:31.751Z,17.52
2018-05-13T02:43:31.768Z,17.54
2018-05-13T02:44:31.771Z,17.51
2018-05-13T02:45:31.758Z,17.54
2018-05-13T02:46:31.769Z,17.58
2018-05-13T02:47:31.786Z,17.52
2018-05-13T02:48:31.931Z,17.52
2018-05-13T02:49:31.757Z,17.55
2018-05-13T02:50:31.794Z,17.62
2018-05-13T02:51:31.770Z,17.62
2018-05-13T02:52:31.811Z,17.62
2018-05-13T02:53:31.773Z,17.56
2018-05-13T02:54:31.786Z,17.59
2018-05-13T02:55:31.795Z,17.59
2018-05-13T02:56:31.784Z,17.59
2018-05-13T02:57:31.794Z,17.66
2018-05-13T02:58:31.787Z,17.64
2018-05-13T02:59:31.798Z,17.68
2018-05-13T03:00:31.805Z,17.72
2018-05-13T03:01:32.390Z,17.63
2018-05-13T03:02:31.822Z,17.70
2018-05-13T03:03:31.814Z,17.64
2018-05-13T03:04:31.827Z,17.63
2018-05-13T03:05:31.817Z,17.66
2018-05-13T03:06:31.821Z,17.62
2018-05-13T03:07:31.823Z,17.56
2018-05-13T03:08:31.832Z,17.56
2018-05-13T03:09:31.844Z,17.58
2018-05-13T03:10:31.862Z,17.54
2018-05-13T03:11:31.865Z,17.59
2018-05-13T03:12:31.846Z,17.56
2018-05-13T03:13:31.857Z,17.63
2018-05-13T03:14:31.848Z,17.54
2018-05-13T03:15:31.842Z,17.43
2018-05-13T03:16:31.865Z,17.52
2018-05-13T03:17:31.843Z,17.43
2018-05-13T03:18:31.873Z,17.41
2018-05-13T03:19:31.879Z,17.40
2018-05-13T03:20:31.865Z,17.48
2018-05-13T03:21:31.873Z,17.40
2018-05-13T03:22:31.868Z,17.37
2018-05-13T03:23:31.875Z,17.43
2018-05-13T03:24:31.874Z,17.40
2018-05-13T03:25:31.870Z,17.41
2018-05-13T03:26:31.874Z,17.52
2018-05-13T03:27:31.881Z,17.52
2018-05-13T03:28:31.886Z,17.49
2018-05-13T03:29:32.034Z,17.52
2018-05-13T03:30:31.908Z,17.44
2018-05-13T03:31:31.922Z,17.43
2018-05-13T03:32:31.933Z,17.36
2018-05-13T03:33:31.909Z,17.34
2018-05-13T03:34:31.919Z,17.33
2018-05-13T03:35:31.933Z,17.43
2018-05-13T03:36:31.954Z,17.49
2018-05-13T03:37:31.927Z,17.55
2018-05-13T03:38:31.912Z,17.49
2018-05-13T03:39:31.955Z,17.43
2018-05-13T03:40:31.944Z,17.43
2018-05-13T03:41:31.952Z,17.46
2018-05-13T03:42:32.906Z,17.40
2018-05-13T03:43:31.934Z,17.40
2018-05-13T03:44:31.950Z,17.40
2018-05-13T03:45:32.899Z,17.51
2018-05-13T03:46:31.990Z,17.40
2018-05-13T03:47:31.938Z,17.38
2018-05-13T03:48:31.970Z,17.49
2018-05-13T03:49:32.018Z,17.40
2018-05-13T03:50:31.952Z,17.52
2018-05-13T03:51:31.955Z,17.52
2018-05-13T03:52:31.974Z,17.52
2018-05-13T03:53:31.983Z,17.68
2018-05-13T03:54:31.962Z,17.56
2018-05-13T03:55:31.992Z,17.63
2018-05-13T03:56:31.996Z,17.58
2018-05-13T03:57:31.992Z,17.64
2018-05-13T03:58:31.982Z,17.62
2018-05-13T03:59:32.010Z,17.59
2018-05-13T04:00:31.999Z,17.63
2018-05-13T04:01:32.000Z,17.68
2018-05-13T04:02:32.018Z,17.66
2018-05-13T04:03:32.039Z,17.70
2018-05-13T04:04:32.004Z,17.64
2018-05-13T04:05:32.005Z,17.64
2018-05-13T04:06:32.035Z,17.66
2018-05-13T04:07:32.015Z,17.56
2018-05-13T04:08:32.020Z,17.56
2018-05-13T04:09:32.025Z,17.71
2018-05-13T04:10:32.080Z,17.72
2018-05-13T04:11:32.020Z,17.63
2018-05-13T04:12:32.025Z,17.63
2018-05-13T04:13:32.034Z,17.64
2018-05-13T04:14:32.035Z,17.46
2018-05-13T04:15:32.040Z,17.44
2018-05-13T04:16:32.031Z,17.41
2018-05-13T04:17:32.040Z,17.31
2018-05-13T04:18:32.044Z,17.41
2018-05-13T04:19:32.067Z,17.44
2018-05-13T04:20:32.064Z,17.44
2018-05-13T04:21:32.059Z,17.40
2018-05-13T04:22:32.065Z,17.38
2018-05-13T04:23:32.194Z,17.43
2018-05-13T04:24:32.070Z,17.48
2018-05-13T04:25:32.102Z,17.37
2018-05-13T04:26:32.068Z,17.25
2018-05-13T04:27:32.075Z,17.36
2018-05-13T04:28:32.087Z,17.25
2018-05-13T04:29:32.099Z,17.25
2018-05-13T04:30:32.099Z,17.31
2018-05-13T04:31:32.086Z,17.26
2018-05-13T04:32:32.086Z,17.18
2018-05-13T04:33:32.115Z,17.18
2018-05-13T04:34:32.102Z,17.25
2018-05-13T04:35:32.101Z,17.34
2018-05-13T04:36:32.114Z,17.28
2018-05-13T04:37:32.108Z,17.36
2018-05-13T04:38:32.119Z,17.30
2018-05-13T04:39:32.112Z,17.34
2018-05-13T04:40:32.109Z,17.31
2018-05-13T04:41:32.128Z,17.38
2018-05-13T04:42:32.124Z,17.44
2018-05-13T04:43:32.125Z,17.46
2018-05-13T04:44:32.133Z,17.44
2018-05-13T04:45:32.134Z,17.34
2018-05-13T04:46:32.127Z,17.46
2018-05-13T04:47:32.170Z,17.40
2018-05-13T04:48:32.160Z,17.31
2018-05-13T04:49:32.175Z,17.16
2018-05-13T04:50:32.157Z,17.18
2018-05-13T04:51:32.156Z,17.18
2018-05-13T04:52:32.158Z,17.12
2018-05-13T04:53:32.185Z,17.06
2018-05-13T04:54:32.166Z,17.00
2018-05-13T04:55:32.156Z,17.07
2018-05-13T04:56:32.214Z,17.19
2018-05-13T04:57:32.168Z,17.19
2018-05-13T04:58:32.174Z,17.16
2018-05-13T04:59:32.168Z,17.16
2018-05-13T05:00:32.172Z,17.18
2018-05-13T05:01:32.191Z,17.25
2018-05-13T05:02:32.209Z,17.28
2018-05-13T05:03:32.201Z,17.30
2018-05-13T05:04:32.929Z,17.28
2018-05-13T05:05:32.211Z,17.37
2018-05-13T05:06:32.208Z,17.48
2018-05-13T05:07:32.230Z,17.26
2018-05-13T05:08:32.208Z,17.15
2018-05-13T05:09:32.204Z,17.14
2018-05-13T05:10:32.226Z,17.16
2018-05-13T05:11:32.229Z,17.15
2018-05-13T05:12:32.230Z,17.23
2018-05-13T05:13:32.221Z,17.25
2018-05-13T05:14:32.248Z,17.25
2018-05-13T05:15:32.239Z,17.30
2018-05-13T05:16:32.245Z,17.33
2018-05-13T05:17:32.258Z,17.25
2018-05-13T05:18:32.246Z,17.48
2018-05-13T05:19:32.268Z,17.21
2018-05-13T05:20:32.263Z,17.23
2018-05-13T05:21:32.248Z,17.23
2018-05-13T05:22:32.249Z,17.16
2018-05-13T05:23:32.252Z,17.28
2018-05-13T05:24:32.251Z,17.33
2018-05-13T05:25:32.268Z,17.43
2018-05-13T05:26:32.266Z,17.46
2018-05-13T05:27:32.941Z,17.30
2018-05-13T05:28:32.274Z,17.48
2018-05-13T05:29:32.280Z,17.30
2018-05-13T05:30:32.275Z,17.43
2018-05-13T05:31:32.302Z,17.46
2018-05-13T05:32:32.278Z,17.54
2018-05-13T05:33:32.297Z,17.59
2018-05-13T05:34:32.286Z,17.84
2018-05-13T05:35:32.296Z,17.89
2018-05-13T05:36:32.322Z,17.87
2018-05-13T05:37:32.292Z,17.87
2018-05-13T05:38:32.308Z,18.02
2018-05-13T05:39:32.315Z,18.47
2018-05-13T05:40:32.425Z,18.36
2018-05-13T05:41:32.335Z,18.30
2018-05-13T05:42:32.338Z,18.37
2018-05-13T05:43:32.325Z,18.52
2018-05-13T05:44:32.342Z,18.55
2018-05-13T05:45:32.316Z,18.69
2018-05-13T05:46:32.333Z,18.70
2018-05-13T05:47:32.342Z,18.73
2018-05-13T05:48:32.396Z,18.81
2018-05-13T05:49:32.353Z,18.95
2018-05-13T05:50:32.394Z,18.95
2018-05-13T05:51:32.367Z,18.94
2018-05-13T05:52:32.350Z,19.18
2018-05-13T05:53:32.365Z,18.95
2018-05-13T05:54:32.357Z,18.98
2018-05-13T05:55:32.373Z,19.00
2018-05-13T05:56:32.371Z,19.13
2018-05-13T05:57:32.360Z,19.50
2018-05-13T05:58:32.366Z,19.81
2018-05-13T05:59:32.374Z,20.11
2018-05-13T06:00:32.374Z,20.23
2018-05-13T06:01:32.376Z,20.32
2018-05-13T06:02:32.381Z,20.61
2018-05-13T06:03:32.384Z,20.72
2018-05-13T06:04:32.389Z,20.82
2018-05-13T06:05:32.385Z,20.69
2018-05-13T06:06:32.395Z,20.69
2018-05-13T06:07:32.405Z,20.70
2018-05-13T06:08:32.954Z,20.73
2018-05-13T06:09:32.427Z,20.51
2018-05-13T06:10:32.438Z,20.70
2018-05-13T06:11:32.435Z,20.73
2018-05-13T06:12:32.426Z,20.87
2018-05-13T06:13:32.433Z,20.76
2018-05-13T06:14:32.458Z,20.92
2018-05-13T06:15:32.452Z,20.89
2018-05-13T06:16:32.471Z,20.92
2018-05-13T06:17:32.439Z,21.12
2018-05-13T06:18:32.442Z,21.22
2018-05-13T06:19:32.451Z,21.27
2018-05-13T06:20:32.446Z,21.37
2018-05-13T06:21:32.469Z,21.37
2018-05-13T06:22:32.448Z,21.34
2018-05-13T06:23:32.489Z,21.44
2018-05-13T06:24:32.469Z,21.67
2018-05-13T06:25:32.473Z,21.99
2018-05-13T06:26:32.488Z,22.06
2018-05-13T06:27:32.477Z,22.54
2018-05-13T06:28:32.962Z,23.19
2018-05-13T06:29:32.488Z,23.43
2018-05-13T06:30:32.487Z,23.61
2018-05-13T06:31:32.539Z,24.03
2018-05-13T06:32:32.544Z,24.47
2018-05-13T06:33:32.533Z,24.76
2018-05-13T06:34:32.517Z,24.62
2018-05-13T06:35:32.530Z,24.96
2018-05-13T06:36:32.514Z,25.13
2018-05-13T06:37:32.522Z,24.98
2018-05-13T06:38:32.552Z,24.50
2018-05-13T06:39:32.549Z,24.18
2018-05-13T06:40:32.563Z,23.70
2018-05-13T06:41:32.641Z,23.42
2018-05-13T06:42:32.580Z,22.95
2018-05-13T06:43:32.566Z,23.09
2018-05-13T06:44:32.604Z,23.36
2018-05-13T06:45:32.614Z,23.65
2018-05-13T06:46:32.579Z,23.65
2018-05-13T06:47:32.584Z,23.87
2018-05-13T06:48:32.599Z,22.92
2018-05-13T06:49:32.639Z,23.13
2018-05-13T06:50:32.628Z,23.50
2018-05-13T06:51:32.648Z,23.66
2018-05-13T06:52:32.615Z,23.97
2018-05-13T06:53:32.627Z,24.10
2018-05-13T06:54:32.648Z,23.63
2018-05-13T06:55:32.639Z,23.02
2018-05-13T06:56:33.479Z,22.82
2018-05-13T06:57:32.660Z,22.94
2018-05-13T06:58:32.670Z,22.62
2018-05-13T06:59:32.666Z,22.76
2018-05-13T07:00:32.701Z,23.01
2018-05-13T07:01:32.737Z,23.83
2018-05-13T07:02:32.703Z,24.24
2018-05-13T07:03:32.705Z,25.21
2018-05-13T07:04:32.708Z,25.33
2018-05-13T07:05:32.718Z,25.50
2018-05-13T07:06:32.728Z,25.20
2018-05-13T07:07:32.741Z,24.34
2018-05-13T07:08:32.778Z,24.49
2018-05-13T07:09:32.837Z,24.25
2018-05-13T07:10:32.802Z,24.21
2018-05-13T07:11:32.782Z,24.39
2018-05-13T07:12:32.780Z,24.67
2018-05-13T07:13:32.804Z,24.88
2018-05-13T07:14:32.802Z,25.57
2018-05-13T07:15:32.795Z,26.65
2018-05-13T07:16:32.894Z,27.10
2018-05-13T07:17:32.818Z,27.50
2018-05-13T07:18:32.813Z,27.81
2018-05-13T07:19:32.834Z,27.92
2018-05-13T07:20:32.828Z,28.02
2018-05-13T07:21:32.897Z,27.47
2018-05-13T07:22:32.868Z,27.94
2018-05-13T07:23:32.891Z,28.61
2018-05-13T07:24:32.868Z,28.92
2018-05-13T07:25:32.882Z,28.89
2018-05-13T07:26:32.897Z,29.00
2018-05-13T07:27:32.998Z,29.18
2018-05-13T07:28:32.924Z,29.09
2018-05-13T07:29:32.920Z,29.06
2018-05-13T07:30:32.931Z,28.59
2018-05-13T07:31:32.954Z,28.62
2018-05-13T07:32:32.953Z,28.27
2018-05-13T07:33:32.959Z,28.40
2018-05-13T07:34:32.973Z,27.81
2018-05-13T07:35:32.999Z,28.31
2018-05-13T07:36:33.004Z,28.37
2018-05-13T07:37:33.003Z,28.77
2018-05-13T07:38:33.016Z,28.54
2018-05-13T07:39:33.030Z,28.27
2018-05-13T07:40:33.073Z,28.85
2018-05-13T07:41:33.050Z,29.05
2018-05-13T07:42:33.076Z,29.23
2018-05-13T07:43:33.208Z,29.41
2018-05-13T07:44:33.104Z,29.68
2018-05-13T07:45:33.151Z,28.48
2018-05-13T07:46:33.150Z,28.31
2018-05-13T07:47:33.126Z,28.59
2018-05-13T07:48:33.171Z,28.68
2018-05-13T07:49:33.187Z,27.99
2018-05-13T07:50:33.172Z,27.70
2018-05-13T07:51:33.182Z,27.59
2018-05-13T07:52:33.207Z,27.40
2018-05-13T07:53:33.218Z,27.28
2018-05-13T07:54:33.228Z,27.79
2018-05-13T07:55:33.234Z,27.43
2018-05-13T07:56:33.254Z,27.72
2018-05-13T07:57:33.264Z,28.49
2018-05-13T07:58:33.306Z,28.67
2018-05-13T07:59:33.290Z,29.05
2018-05-13T08:00:33.312Z,28.86
2018-05-13T08:01:33.368Z,29.41
2018-05-13T08:02:33.332Z,29.70
2018-05-13T08:03:33.360Z,29.46
2018-05-13T08:04:33.381Z,29.49
2018-05-13T08:05:33.381Z,29.23
2018-05-13T08:06:33.401Z,29.57
2018-05-13T08:07:33.417Z,29.67
2018-05-13T08:08:33.437Z,28.52
2018-05-13T08:09:33.442Z,28.14
2018-05-13T08:10:33.453Z,27.67
2018-05-13T08:11:33.456Z,27.57
2018-05-13T08:12:33.489Z,28.19
2018-05-13T08:13:33.503Z,27.87
2018-05-13T08:14:33.516Z,27.41
2018-05-13T08:15:33.532Z,27.50
2018-05-13T08:16:33.548Z,27.50
2018-05-13T08:17:33.557Z,27.41
2018-05-13T08:18:33.581Z,27.84
2018-05-13T08:19:33.591Z,28.27
2018-05-13T08:20:33.664Z,28.68
2018-05-13T08:21:33.616Z,28.88
2018-05-13T08:22:33.635Z,28.14
2018-05-13T08:23:33.642Z,28.18
2018-05-13T08:24:33.673Z,27.99
2018-05-13T08:25:33.686Z,27.32
2018-05-13T08:26:33.690Z,27.62
2018-05-13T08:27:33.727Z,28.00
2018-05-13T08:28:33.731Z,27.94
2018-05-13T08:29:33.735Z,27.93
2018-05-13T08:30:33.752Z,28.33
2018-05-13T08:31:33.861Z,28.55
2018-05-13T08:32:33.798Z,28.71
2018-05-13T08:33:33.800Z,29.33
2018-05-13T08:34:33.819Z,28.51
2018-05-13T08:35:33.825Z,27.74
2018-05-13T08:36:33.838Z,28.31
2018-05-13T08:37:33.867Z,28.64
2018-05-13T08:38:33.869Z,28.66
2018-05-13T08:39:33.904Z,28.73
2018-05-13T08:40:33.916Z,28.89
2018-05-13T08:41:33.925Z,28.93
2018-05-13T08:42:33.939Z,28.31
2018-05-13T08:43:33.974Z,28.48
2018-05-13T08:44:33.967Z,28.22
2018-05-13T08:45:33.986Z,28.74
2018-05-13T08:46:34.006Z,28.52
2018-05-13T08:47:34.009Z,28.61
2018-05-13T08:48:34.173Z,28.96
2018-05-13T08:49:34.096Z,29.11
2018-05-13T08:50:34.091Z,28.90
2018-05-13T08:51:34.080Z,28.77
2018-05-13T08:52:34.113Z,28.93
2018-05-13T08:53:34.119Z,29.21
2018-05-13T08:54:34.123Z,29.09
2018-05-13T08:55:34.151Z,28.96
2018-05-13T08:56:34.175Z,28.93
2018-05-13T08:57:34.184Z,28.80
2018-05-13T08:58:34.184Z,28.30
2018-05-13T08:59:34.233Z,28.93
2018-05-13T09:00:34.220Z,29.23
2018-05-13T09:01:34.241Z,29.00
2018-05-13T09:02:34.273Z,29.19
2018-05-13T09:03:34.290Z,29.52
2018-05-13T09:04:34.296Z,29.79
2018-05-13T09:05:34.308Z,29.61
2018-05-13T09:06:34.326Z,29.65
2018-05-13T09:07:34.343Z,29.92
2018-05-13T09:08:34.395Z,30.19
2018-05-13T09:09:34.410Z,30.07
2018-05-13T09:10:34.427Z,29.78
2018-05-13T09:11:34.422Z,28.58
2018-05-13T09:12:34.446Z,29.04
2018-05-13T09:13:34.444Z,29.55
2018-05-13T09:14:34.497Z,30.07
2018-05-13T09:15:34.497Z,29.58
2018-05-13T09:16:34.497Z,29.58
2018-05-13T09:17:34.557Z,29.09
2018-05-13T09:18:34.555Z,28.74
2018-05-13T09:19:34.574Z,28.24
2018-05-13T09:20:34.616Z,27.92
2018-05-13T09:21:34.606Z,28.12
2018-05-13T09:22:34.606Z,28.36
2018-05-13T09:23:34.638Z,27.99
2018-05-13T09:24:34.642Z,27.99
2018-05-13T09:25:34.673Z,27.81
2018-05-13T09:26:35.662Z,27.99
2018-05-13T09:27:34.724Z,28.67
2018-05-13T09:28:34.726Z,28.89
2018-05-13T09:29:34.741Z,28.61
2018-05-13T09:30:34.752Z,29.42
2018-05-13T09:31:34.802Z,28.66
2018-05-13T09:32:34.829Z,28.78
2018-05-13T09:33:34.811Z,29.51
2018-05-13T09:34:34.828Z,30.07
2018-05-13T09:35:34.831Z,30.79
2018-05-13T09:36:34.868Z,30.07
2018-05-13T09:37:34.869Z,29.49
2018-05-13T09:38:35.590Z,29.60
2018-05-13T09:39:35.006Z,30.24
2018-05-13T09:40:34.931Z,30.31
2018-05-13T09:41:34.968Z,29.90
2018-05-13T09:42:34.980Z,29.58
2018-05-13T09:43:34.983Z,29.57
2018-05-13T09:44:35.024Z,29.86
2018-05-13T09:45:35.031Z,30.88
2018-05-13T09:46:35.059Z,31.36
2018-05-13T09:47:35.075Z,31.44
2018-05-13T09:48:35.231Z,30.86
2018-05-13T09:49:35.109Z,30.67
2018-05-13T09:50:35.128Z,30.34
2018-05-13T09:51:35.150Z,29.89
2018-05-13T09:52:35.176Z,29.45
2018-05-13T09:53:35.186Z,28.77
2018-05-13T09:54:35.209Z,27.67
2018-05-13T09:55:35.225Z,27.51
2018-05-13T09:56:35.302Z,27.60
2018-05-13T09:57:35.251Z,28.09
2018-05-13T09:58:35.354Z,29.14
2018-05-13T09:59:35.295Z,29.79
2018-05-13T10:00:35.313Z,30.19
2018-05-13T10:01:35.352Z,30.80
2018-05-13T10:02:35.357Z,30.64
2018-05-13T10:03:35.367Z,30.89
2018-05-13T10:04:35.383Z,31.38
2018-05-13T10:05:35.408Z,32.14
2018-05-13T10:06:35.423Z,32.14
2018-05-13T10:07:35.454Z,31.88
2018-05-13T10:08:35.473Z,31.76
2018-05-13T10:09:35.502Z,31.10
2018-05-13T10:10:35.521Z,30.62
2018-05-13T10:11:35.514Z,30.26
2018-05-13T10:12:35.544Z,30.51
2018-05-13T10:13:35.574Z,31.02
2018-05-13T10:14:35.606Z,31.07
2018-05-13T10:15:35.662Z,31.09
2018-05-13T10:16:35.652Z,30.89
2018-05-13T10:17:35.651Z,30.98
2018-05-13T10:18:35.687Z,30.88
2018-05-13T10:19:35.762Z,31.21
2018-05-13T10:20:35.707Z,31.20
2018-05-13T10:21:35.711Z,31.43
2018-05-13T10:22:35.738Z,31.21
2018-05-13T10:23:35.751Z,31.20
2018-05-13T10:24:35.798Z,31.41
2018-05-13T10:25:35.819Z,32.04
2018-05-13T10:26:35.822Z,32.43
2018-05-13T10:27:35.833Z,31.17
2018-05-13T10:28:35.860Z,31.43
2018-05-13T10:29:35.880Z,31.54
2018-05-13T10:30:35.896Z,30.17
2018-05-13T10:31:35.906Z,30.35
2018-05-13T10:32:35.953Z,30.79
2018-05-13T10:33:35.980Z,30.83
2018-05-13T10:34:35.988Z,31.43
2018-05-13T10:35:36.022Z,31.56
2018-05-13T10:36:36.020Z,31.35
2018-05-13T10:37:36.619Z,31.02
2018-05-13T10:38:36.067Z,31.06
2018-05-13T10:39:36.065Z,31.21
2018-05-13T10:40:36.082Z,31.70
2018-05-13T10:41:36.129Z,31.65
2018-05-13T10:42:36.136Z,31.19
2018-05-13T10:43:36.155Z,31.20
2018-05-13T10:44:36.172Z,30.94
2018-05-13T10:45:36.184Z,30.76
2018-05-13T10:46:36.211Z,30.08
2018-05-13T10:47:36.269Z,29.58
2018-05-13T10:48:36.249Z,29.70
2018-05-13T10:49:36.284Z,29.90
2018-05-13T10:50:36.289Z,29.97
2018-05-13T10:51:36.300Z,30.16
2018-05-13T10:52:36.320Z,30.20
2018-05-13T10:53:36.335Z,29.80
2018-05-13T10:54:37.129Z,29.97
2018-05-13T10:55:36.363Z,29.89
2018-05-13T10:56:36.405Z,29.76
2018-05-13T10:57:36.397Z,29.57
2018-05-13T10:58:36.408Z,29.48
2018-05-13T10:59:36.444Z,29.53
2018-05-13T11:00:36.464Z,29.57
2018-05-13T11:01:36.464Z,29.52
2018-05-13T11:02:36.498Z,29.05
2018-05-13T11:03:36.494Z,29.18
2018-05-13T11:04:36.492Z,29.26
2018-05-13T11:05:36.519Z,29.49
2018-05-13T11:06:36.529Z,29.58
2018-05-13T11:07:36.543Z,29.19
2018-05-13T11:08:36.550Z,29.09
2018-05-13T11:09:36.594Z,29.19
2018-05-13T11:10:36.583Z,29.43
2018-05-13T11:11:36.580Z,29.16
2018-05-13T11:12:36.594Z,29.08
2018-05-13T11:13:36.616Z,29.19
2018-05-13T11:14:36.636Z,29.42
2018-05-13T11:15:36.677Z,29.60
2018-05-13T11:16:36.663Z,29.87
2018-05-13T11:17:36.677Z,29.78
2018-05-13T11:18:36.693Z,29.45
2018-05-13T11:19:36.711Z,28.95
2018-05-13T11:20:36.801Z,28.86
2018-05-13T11:21:36.722Z,28.95
2018-05-13T11:22:36.727Z,29.16
2018-05-13T11:23:36.745Z,29.21
2018-05-13T11:24:36.754Z,28.89
2018-05-13T11:25:36.765Z,29.24
2018-05-13T11:26:36.775Z,29.51
2018-05-13T11:27:36.819Z,29.51
2018-05-13T11:28:36.813Z,29.33
2018-05-13T11:29:36.862Z,29.58
2018-05-13T11:30:36.842Z,29.52
2018-05-13T11:31:36.862Z,29.41
2018-05-13T11:32:36.856Z,28.90
2018-05-13T11:33:36.860Z,28.93
2018-05-13T11:34:36.914Z,28.70
2018-05-13T11:35:36.927Z,28.54
2018-05-13T11:36:36.904Z,28.85
2018-05-13T11:37:36.927Z,28.86
2018-05-13T11:38:36.926Z,28.95
2018-05-13T11:39:36.943Z,28.96
2018-05-13T11:40:36.958Z,29.28
2018-05-13T11:41:36.969Z,29.45
2018-05-13T11:42:36.987Z,29.55
2018-05-13T11:43:37.003Z,29.71
2018-05-13T11:44:36.996Z,29.78
2018-05-13T11:45:37.011Z,29.87
2018-05-13T11:46:37.037Z,30.04
2018-05-13T11:47:37.036Z,29.97
2018-05-13T11:48:37.035Z,29.89
2018-05-13T11:49:37.044Z,29.90
2018-05-13T11:50:37.094Z,29.67
2018-05-13T11:51:37.093Z,29.57
2018-05-13T11:52:37.175Z,29.21
2018-05-13T11:53:37.106Z,28.90
2018-05-13T11:54:37.116Z,28.71
2018-05-13T11:55:37.132Z,28.89
2018-05-13T11:56:37.135Z,29.08
2018-05-13T11:57:37.140Z,29.24
2018-05-13T11:58:37.167Z,29.00
2018-05-13T11:59:37.192Z,28.95
2018-05-13T12:00:37.219Z,28.86
2018-05-13T12:01:37.189Z,28.66
2018-05-13T12:02:37.222Z,28.85
2018-05-13T12:03:37.209Z,29.05
2018-05-13T12:04:37.217Z,29.02
2018-05-13T12:05:37.247Z,28.44
2018-05-13T12:06:37.247Z,28.49
2018-05-13T12:07:37.267Z,28.40
2018-05-13T12:08:37.322Z,28.56
2018-05-13T12:09:37.270Z,28.89
2018-05-13T12:10:37.309Z,29.09
2018-05-13T12:11:37.296Z,29.06
2018-05-13T12:12:38.191Z,29.00
2018-05-13T12:13:37.332Z,29.27
2018-05-13T12:14:37.348Z,29.27
2018-05-13T12:15:37.349Z,29.21
2018-05-13T12:16:37.359Z,29.26
2018-05-13T12:17:37.473Z,29.37
2018-05-13T12:18:37.368Z,29.53
2018-05-13T12:19:37.398Z,29.67
2018-05-13T12:20:37.391Z,29.49
2018-05-13T12:21:37.404Z,29.39
2018-05-13T12:22:37.412Z,28.90
2018-05-13T12:23:37.419Z,28.58
2018-05-13T12:24:37.457Z,28.11
2018-05-13T12:25:37.492Z,27.92
2018-05-13T12:26:37.479Z,27.74
2018-05-13T12:27:37.482Z,27.29
2018-05-13T12:28:37.505Z,27.17
2018-05-13T12:29:37.508Z,26.81
2018-05-13T12:30:37.499Z,26.54
2018-05-13T12:31:37.523Z,26.30
2018-05-13T12:32:37.521Z,25.82
2018-05-13T12:33:37.533Z,25.95
2018-05-13T12:34:37.537Z,26.25
2018-05-13T12:35:37.551Z,26.40
2018-05-13T12:36:37.553Z,26.67
2018-05-13T12:37:37.578Z,26.80
2018-05-13T12:38:37.570Z,26.77
2018-05-13T12:39:37.592Z,26.58
2018-05-13T12:40:37.603Z,26.99
2018-05-13T12:41:37.641Z,27.18
2018-05-13T12:42:37.654Z,27.46
2018-05-13T12:43:37.634Z,27.70
2018-05-13T12:44:37.647Z,27.66
2018-05-13T12:45:37.640Z,27.66
2018-05-13T12:46:37.663Z,27.47
2018-05-13T12:47:37.663Z,27.46
2018-05-13T12:48:37.686Z,26.76
2018-05-13T12:49:37.674Z,27.10
2018-05-13T12:50:37.767Z,27.24
2018-05-13T12:51:37.711Z,27.41
2018-05-13T12:52:37.716Z,27.18